sensor_id;sensor_type;location;lat;lon;timestamp;P1;P2;P0
77515;PMS5003;66627;29.424;-98.496;2023-06-10T00:00:13;15;14;
77515;PMS5003;66627;29.424;-98.496;2023-06-10T00:02:38;14;14;
77515;PMS5003;66627;29.424;-98.496;2023-06-10T00:05:03;11;11;
77515;PMS5003;66627;29.424;-98.496;2023-06-10T00:07:28;13;13;
77515;PMS5003;66627;29.424;-98.496;2023-06-10T00:09:53;13;13;
77515;PMS5003;66627;29.424;-98.496;2023-06-10T00:12:18;13;13;
77515;PMS5003;66627;29.424;-98.496;2023-06-10T00:14:44;13;13;
77515;PMS5003;66627;29.424;-98.496;2023-06-10T00:17:10;12;12;
77515;PMS5003;66627;29.424;-98.496;2023-06-10T00:19:35;15;13;
77515;PMS5003;66627;29.424;-98.496;2023-06-10T00:22:00;14;13;
77515;PMS5003;66627;29.424;-98.496;2023-06-10T00:24:26;14;14;
77515;PMS5003;66627;29.424;-98.496;2023-06-10T00:26:51;16;14;
77515;PMS5003;66627;29.424;-98.496;2023-06-10T00:29:16;12;12;
77515;PMS5003;66627;29.424;-98.496;2023-06-10T00:31:44;14;14;
77515;PMS5003;66627;29.424;-98.496;2023-06-10T00:34:07;13;13;
77515;PMS5003;66627;29.424;-98.496;2023-06-10T00:36:32;13;13;
77515;PMS5003;66627;29.424;-98.496;2023-06-10T00:38:57;14;14;
77515;PMS5003;66627;29.424;-98.496;2023-06-10T00:41:22;12;11;
77515;PMS5003;66627;29.424;-98.496;2023-06-10T00:43:48;13;13;
77515;PMS5003;66627;29.424;-98.496;2023-06-10T00:46:13;13;13;
77515;PMS5003;66627;29.424;-98.496;2023-06-10T00:48:38;15;13;
77515;PMS5003;66627;29.424;-98.496;2023-06-10T00:51:04;14;12;
77515;PMS5003;66627;29.424;-98.496;2023-06-10T00:53:29;13;13;
77515;PMS5003;66627;29.424;-98.496;2023-06-10T00:55:55;15;14;
77515;PMS5003;66627;29.424;-98.496;2023-06-10T00:58:20;12;11;
77515;PMS5003;66627;29.424;-98.496;2023-06-10T01:00:46;11;11;
77515;PMS5003;66627;29.424;-98.496;2023-06-10T01:03:11;13;12;
77515;PMS5003;66627;29.424;-98.496;2023-06-10T01:05:37;15;15;
77515;PMS5003;66627;29.424;-98.496;2023-06-10T01:08:05;16;14;
77515;PMS5003;66627;29.424;-98.496;2023-06-10T01:10:29;16;14;
77515;PMS5003;66627;29.424;-98.496;2023-06-10T01:12:55;13;12;
77515;PMS5003;66627;29.424;-98.496;2023-06-10T01:15:19;12;12;
77515;PMS5003;66627;29.424;-98.496;2023-06-10T01:20:09;15;13;
77515;PMS5003;66627;29.424;-98.496;2023-06-10T01:22:35;14;13;
77515;PMS5003;66627;29.424;-98.496;2023-06-10T01:25:00;12;12;
77515;PMS5003;66627;29.424;-98.496;2023-06-10T01:27:26;15;13;
77515;PMS5003;66627;29.424;-98.496;2023-06-10T01:29:54;11;11;
77515;PMS5003;66627;29.424;-98.496;2023-06-10T01:32:18;16;14;
77515;PMS5003;66627;29.424;-98.496;2023-06-10T01:34:42;15;14;
77515;PMS5003;66627;29.424;-98.496;2023-06-10T01:37:07;15;15;
77515;PMS5003;66627;29.424;-98.496;2023-06-10T01:39:32;17;14;
77515;PMS5003;66627;29.424;-98.496;2023-06-10T01:41:58;16;13;
77515;PMS5003;66627;29.424;-98.496;2023-06-10T01:44:23;13;13;
77515;PMS5003;66627;29.424;-98.496;2023-06-10T01:46:48;12;12;
77515;PMS5003;66627;29.424;-98.496;2023-06-10T01:49:13;16;15;
77515;PMS5003;66627;29.424;-98.496;2023-06-10T01:51:39;14;12;
77515;PMS5003;66627;29.424;-98.496;2023-06-10T01:54:05;14;14;
77515;PMS5003;66627;29.424;-98.496;2023-06-10T01:56:30;18;15;
77515;PMS5003;66627;29.424;-98.496;2023-06-10T01:58:55;16;15;
77515;PMS5003;66627;29.424;-98.496;2023-06-10T02:01:20;14;13;
77515;PMS5003;66627;29.424;-98.496;2023-06-10T02:03:45;16;16;
77515;PMS5003;66627;29.424;-98.496;2023-06-10T02:06:11;14;13;
77515;PMS5003;66627;29.424;-98.496;2023-06-10T02:08:36;18;17;
77515;PMS5003;66627;29.424;-98.496;2023-06-10T02:11:02;13;13;
77515;PMS5003;66627;29.424;-98.496;2023-06-10T02:13:28;12;12;
77515;PMS5003;66627;29.424;-98.496;2023-06-10T02:15:53;14;14;
77515;PMS5003;66627;29.424;-98.496;2023-06-10T02:18:18;16;16;
77515;PMS5003;66627;29.424;-98.496;2023-06-10T02:20:43;17;17;
77515;PMS5003;66627;29.424;-98.496;2023-06-10T02:23:08;14;14;
77515;PMS5003;66627;29.424;-98.496;2023-06-10T02:25:34;20;18;
77515;PMS5003;66627;29.424;-98.496;2023-06-10T02:27:59;19;18;
77515;PMS5003;66627;29.424;-98.496;2023-06-10T02:30:25;15;14;
77515;PMS5003;66627;29.424;-98.496;2023-06-10T02:32:51;17;17;
77515;PMS5003;66627;29.424;-98.496;2023-06-10T02:35:17;15;15;
77515;PMS5003;66627;29.424;-98.496;2023-06-10T02:37:42;16;15;
77515;PMS5003;66627;29.424;-98.496;2023-06-10T02:40:08;18;17;
77515;PMS5003;66627;29.424;-98.496;2023-06-10T02:42:33;16;16;
77515;PMS5003;66627;29.424;-98.496;2023-06-10T02:44:58;13;13;
77515;PMS5003;66627;29.424;-98.496;2023-06-10T02:47:24;18;18;
77515;PMS5003;66627;29.424;-98.496;2023-06-10T02:49:50;17;17;
77515;PMS5003;66627;29.424;-98.496;2023-06-10T02:52:15;16;16;
77515;PMS5003;66627;29.424;-98.496;2023-06-10T02:54:40;18;17;
77515;PMS5003;66627;29.424;-98.496;2023-06-10T02:57:06;17;16;
77515;PMS5003;66627;29.424;-98.496;2023-06-10T02:59:31;17;17;
77515;PMS5003;66627;29.424;-98.496;2023-06-10T03:01:57;20;19;
77515;PMS5003;66627;29.424;-98.496;2023-06-10T03:04:23;17;17;
77515;PMS5003;66627;29.424;-98.496;2023-06-10T03:06:48;18;18;
77515;PMS5003;66627;29.424;-98.496;2023-06-10T03:09:13;15;15;
77515;PMS5003;66627;29.424;-98.496;2023-06-10T03:11:38;17;15;
77515;PMS5003;66627;29.424;-98.496;2023-06-10T03:14:03;18;18;
77515;PMS5003;66627;29.424;-98.496;2023-06-10T03:16:29;18;17;
77515;PMS5003;66627;29.424;-98.496;2023-06-10T03:18:55;18;16;
77515;PMS5003;66627;29.424;-98.496;2023-06-10T03:21:20;13;13;
77515;PMS5003;66627;29.424;-98.496;2023-06-10T03:23:45;14;14;
77515;PMS5003;66627;29.424;-98.496;2023-06-10T03:26:11;18;18;
77515;PMS5003;66627;29.424;-98.496;2023-06-10T03:28:36;22;19;
77515;PMS5003;66627;29.424;-98.496;2023-06-10T03:31:01;18;15;
77515;PMS5003;66627;29.424;-98.496;2023-06-10T03:33:27;15;15;
77515;PMS5003;66627;29.424;-98.496;2023-06-10T03:35:52;12;12;
77515;PMS5003;66627;29.424;-98.496;2023-06-10T03:38:18;13;13;
77515;PMS5003;66627;29.424;-98.496;2023-06-10T03:40:43;17;14;
77515;PMS5003;66627;29.424;-98.496;2023-06-10T03:45:34;15;14;
77515;PMS5003;66627;29.424;-98.496;2023-06-10T03:48:00;15;15;
77515;PMS5003;66627;29.424;-98.496;2023-06-10T03:50:26;14;14;
77515;PMS5003;66627;29.424;-98.496;2023-06-10T03:52:51;15;15;
77515;PMS5003;66627;29.424;-98.496;2023-06-10T03:55:16;14;13;
77515;PMS5003;66627;29.424;-98.496;2023-06-10T03:57:42;13;11;
77515;PMS5003;66627;29.424;-98.496;2023-06-10T04:00:07;12;12;
77515;PMS5003;66627;29.424;-98.496;2023-06-10T04:02:32;14;14;
77515;PMS5003;66627;29.424;-98.496;2023-06-10T04:04:58;15;15;
77515;PMS5003;66627;29.424;-98.496;2023-06-10T04:07:23;15;13;
77515;PMS5003;66627;29.424;-98.496;2023-06-10T04:09:48;13;12;
77515;PMS5003;66627;29.424;-98.496;2023-06-10T04:12:13;14;12;
77515;PMS5003;66627;29.424;-98.496;2023-06-10T04:14:39;13;13;
77515;PMS5003;66627;29.424;-98.496;2023-06-10T04:17:04;11;11;
77515;PMS5003;66627;29.424;-98.496;2023-06-10T04:19:30;12;11;
77515;PMS5003;66627;29.424;-98.496;2023-06-10T04:21:55;11;11;
77515;PMS5003;66627;29.424;-98.496;2023-06-10T04:24:21;11;11;
77515;PMS5003;66627;29.424;-98.496;2023-06-10T04:26:45;13;11;
77515;PMS5003;66627;29.424;-98.496;2023-06-10T04:29:10;11;11;
77515;PMS5003;66627;29.424;-98.496;2023-06-10T04:31:35;11;11;
77515;PMS5003;66627;29.424;-98.496;2023-06-10T04:34:01;16;14;
77515;PMS5003;66627;29.424;-98.496;2023-06-10T04:36:26;10;9;
77515;PMS5003;66627;29.424;-98.496;2023-06-10T04:38:52;12;9;
77515;PMS5003;66627;29.424;-98.496;2023-06-10T04:41:16;13;11;
77515;PMS5003;66627;29.424;-98.496;2023-06-10T04:43:42;12;12;
77515;PMS5003;66627;29.424;-98.496;2023-06-10T04:46:08;16;13;
77515;PMS5003;66627;29.424;-98.496;2023-06-10T04:48:33;10;10;
77515;PMS5003;66627;29.424;-98.496;2023-06-10T04:50:59;13;10;
77515;PMS5003;66627;29.424;-98.496;2023-06-10T04:53:24;10;10;
77515;PMS5003;66627;29.424;-98.496;2023-06-10T04:55:49;12;12;
77515;PMS5003;66627;29.424;-98.496;2023-06-10T04:58:14;11;11;
77515;PMS5003;66627;29.424;-98.496;2023-06-10T05:00:39;12;10;
77515;PMS5003;66627;29.424;-98.496;2023-06-10T05:03:04;8;8;
77515;PMS5003;66627;29.424;-98.496;2023-06-10T05:05:29;9;9;
77515;PMS5003;66627;29.424;-98.496;2023-06-10T05:07:55;13;13;
77515;PMS5003;66627;29.424;-98.496;2023-06-10T05:10:20;13;12;
77515;PMS5003;66627;29.424;-98.496;2023-06-10T05:12:45;13;12;
77515;PMS5003;66627;29.424;-98.496;2023-06-10T05:15:11;13;13;
77515;PMS5003;66627;29.424;-98.496;2023-06-10T05:17:36;14;10;
77515;PMS5003;66627;29.424;-98.496;2023-06-10T05:20:01;12;10;
77515;PMS5003;66627;29.424;-98.496;2023-06-10T05:22:26;12;12;
77515;PMS5003;66627;29.424;-98.496;2023-06-10T05:24:52;13;11;
77515;PMS5003;66627;29.424;-98.496;2023-06-10T05:27:17;8;8;
77515;PMS5003;66627;29.424;-98.496;2023-06-10T05:29:42;13;12;
77515;PMS5003;66627;29.424;-98.496;2023-06-10T05:32:08;14;14;
77515;PMS5003;66627;29.424;-98.496;2023-06-10T05:34:33;12;11;
77515;PMS5003;66627;29.424;-98.496;2023-06-10T05:36:58;9;9;
77515;PMS5003;66627;29.424;-98.496;2023-06-10T05:39:23;14;11;
77515;PMS5003;66627;29.424;-98.496;2023-06-10T05:41:48;14;14;
77515;PMS5003;66627;29.424;-98.496;2023-06-10T05:44:15;9;9;
77515;PMS5003;66627;29.424;-98.496;2023-06-10T05:46:40;13;10;
77515;PMS5003;66627;29.424;-98.496;2023-06-10T05:49:04;13;11;
77515;PMS5003;66627;29.424;-98.496;2023-06-10T05:51:30;12;12;
77515;PMS5003;66627;29.424;-98.496;2023-06-10T05:53:55;10;10;
77515;PMS5003;66627;29.424;-98.496;2023-06-10T05:56:21;10;10;
77515;PMS5003;66627;29.424;-98.496;2023-06-10T05:58:45;15;12;
77515;PMS5003;66627;29.424;-98.496;2023-06-10T06:01:11;9;9;
77515;PMS5003;66627;29.424;-98.496;2023-06-10T06:03:37;13;12;
77515;PMS5003;66627;29.424;-98.496;2023-06-10T06:06:02;9;9;
77515;PMS5003;66627;29.424;-98.496;2023-06-10T06:08:28;14;12;
77515;PMS5003;66627;29.424;-98.496;2023-06-10T06:10:53;10;10;
77515;PMS5003;66627;29.424;-98.496;2023-06-10T06:13:18;11;10;
77515;PMS5003;66627;29.424;-98.496;2023-06-10T06:15:43;11;10;
77515;PMS5003;66627;29.424;-98.496;2023-06-10T06:18:08;11;11;
77515;PMS5003;66627;29.424;-98.496;2023-06-10T06:20:34;15;12;
77515;PMS5003;66627;29.424;-98.496;2023-06-10T06:22:59;14;13;
77515;PMS5003;66627;29.424;-98.496;2023-06-10T06:25:24;11;11;
77515;PMS5003;66627;29.424;-98.496;2023-06-10T06:27:49;13;12;
77515;PMS5003;66627;29.424;-98.496;2023-06-10T06:30:15;13;11;
77515;PMS5003;66627;29.424;-98.496;2023-06-10T06:32:39;11;10;
77515;PMS5003;66627;29.424;-98.496;2023-06-10T06:35:05;11;11;
77515;PMS5003;66627;29.424;-98.496;2023-06-10T06:37:30;10;10;
77515;PMS5003;66627;29.424;-98.496;2023-06-10T06:39:55;12;11;
77515;PMS5003;66627;29.424;-98.496;2023-06-10T06:42:21;12;10;
77515;PMS5003;66627;29.424;-98.496;2023-06-10T06:44:46;10;10;
77515;PMS5003;66627;29.424;-98.496;2023-06-10T06:47:12;13;11;
77515;PMS5003;66627;29.424;-98.496;2023-06-10T06:49:37;8;8;
77515;PMS5003;66627;29.424;-98.496;2023-06-10T06:52:02;14;12;
77515;PMS5003;66627;29.424;-98.496;2023-06-10T06:54:28;11;11;
77515;PMS5003;66627;29.424;-98.496;2023-06-10T06:56:52;14;12;
77515;PMS5003;66627;29.424;-98.496;2023-06-10T06:59:18;10;10;
77515;PMS5003;66627;29.424;-98.496;2023-06-10T07:01:43;11;11;
77515;PMS5003;66627;29.424;-98.496;2023-06-10T07:04:08;9;9;
77515;PMS5003;66627;29.424;-98.496;2023-06-10T07:06:34;12;12;
77515;PMS5003;66627;29.424;-98.496;2023-06-10T07:09:00;11;10;
77515;PMS5003;66627;29.424;-98.496;2023-06-10T07:11:24;13;11;
77515;PMS5003;66627;29.424;-98.496;2023-06-10T07:13:50;13;11;
77515;PMS5003;66627;29.424;-98.496;2023-06-10T07:16:15;14;12;
77515;PMS5003;66627;29.424;-98.496;2023-06-10T07:18:40;12;9;
77515;PMS5003;66627;29.424;-98.496;2023-06-10T07:21:05;11;11;
77515;PMS5003;66627;29.424;-98.496;2023-06-10T07:23:30;12;11;
77515;PMS5003;66627;29.424;-98.496;2023-06-10T07:25:55;12;12;
77515;PMS5003;66627;29.424;-98.496;2023-06-10T07:28:21;10;10;
77515;PMS5003;66627;29.424;-98.496;2023-06-10T07:30:46;13;11;
77515;PMS5003;66627;29.424;-98.496;2023-06-10T07:33:11;12;12;
77515;PMS5003;66627;29.424;-98.496;2023-06-10T07:35:36;13;13;
77515;PMS5003;66627;29.424;-98.496;2023-06-10T07:38:01;9;9;
77515;PMS5003;66627;29.424;-98.496;2023-06-10T07:40:27;8;8;
77515;PMS5003;66627;29.424;-98.496;2023-06-10T07:42:52;9;9;
77515;PMS5003;66627;29.424;-98.496;2023-06-10T07:45:17;11;11;
77515;PMS5003;66627;29.424;-98.496;2023-06-10T07:47:42;11;11;
77515;PMS5003;66627;29.424;-98.496;2023-06-10T07:50:09;11;8;
77515;PMS5003;66627;29.424;-98.496;2023-06-10T07:52:34;11;10;
77515;PMS5003;66627;29.424;-98.496;2023-06-10T07:54:59;11;11;
77515;PMS5003;66627;29.424;-98.496;2023-06-10T07:57:24;11;11;
77515;PMS5003;66627;29.424;-98.496;2023-06-10T07:59:49;11;9;
77515;PMS5003;66627;29.424;-98.496;2023-06-10T08:02:15;14;13;
77515;PMS5003;66627;29.424;-98.496;2023-06-10T08:04:40;10;10;
77515;PMS5003;66627;29.424;-98.496;2023-06-10T08:07:05;13;12;
77515;PMS5003;66627;29.424;-98.496;2023-06-10T08:09:30;12;12;
77515;PMS5003;66627;29.424;-98.496;2023-06-10T08:11:56;11;10;
77515;PMS5003;66627;29.424;-98.496;2023-06-10T08:14:21;11;11;
77515;PMS5003;66627;29.424;-98.496;2023-06-10T08:16:47;12;12;
77515;PMS5003;66627;29.424;-98.496;2023-06-10T08:19:12;13;11;
77515;PMS5003;66627;29.424;-98.496;2023-06-10T08:21:37;11;11;
77515;PMS5003;66627;29.424;-98.496;2023-06-10T08:24:02;12;11;
77515;PMS5003;66627;29.424;-98.496;2023-06-10T08:26:28;12;10;
77515;PMS5003;66627;29.424;-98.496;2023-06-10T08:28:53;12;12;
77515;PMS5003;66627;29.424;-98.496;2023-06-10T08:31:18;10;10;
77515;PMS5003;66627;29.424;-98.496;2023-06-10T08:33:43;11;11;
77515;PMS5003;66627;29.424;-98.496;2023-06-10T08:36:09;13;11;
77515;PMS5003;66627;29.424;-98.496;2023-06-10T08:38:34;11;11;
77515;PMS5003;66627;29.424;-98.496;2023-06-10T08:40:59;11;11;
77515;PMS5003;66627;29.424;-98.496;2023-06-10T08:43:26;11;11;
77515;PMS5003;66627;29.424;-98.496;2023-06-10T08:45:49;10;10;
77515;PMS5003;66627;29.424;-98.496;2023-06-10T08:48:15;10;10;
77515;PMS5003;66627;29.424;-98.496;2023-06-10T08:50:40;12;10;
77515;PMS5003;66627;29.424;-98.496;2023-06-10T08:53:06;14;10;
77515;PMS5003;66627;29.424;-98.496;2023-06-10T08:55:32;14;14;
77515;PMS5003;66627;29.424;-98.496;2023-06-10T08:57:56;15;13;
77515;PMS5003;66627;29.424;-98.496;2023-06-10T09:00:22;14;13;
77515;PMS5003;66627;29.424;-98.496;2023-06-10T09:02:47;14;11;
77515;PMS5003;66627;29.424;-98.496;2023-06-10T09:05:12;11;11;
77515;PMS5003;66627;29.424;-98.496;2023-06-10T09:07:37;14;13;
77515;PMS5003;66627;29.424;-98.496;2023-06-10T09:10:03;14;12;
77515;PMS5003;66627;29.424;-98.496;2023-06-10T09:12:27;13;13;
77515;PMS5003;66627;29.424;-98.496;2023-06-10T09:14:52;14;12;
77515;PMS5003;66627;29.424;-98.496;2023-06-10T09:17:18;12;12;
77515;PMS5003;66627;29.424;-98.496;2023-06-10T09:19:43;13;12;
77515;PMS5003;66627;29.424;-98.496;2023-06-10T09:22:09;11;10;
77515;PMS5003;66627;29.424;-98.496;2023-06-10T09:24:35;9;9;
77515;PMS5003;66627;29.424;-98.496;2023-06-10T09:27:03;12;9;
77515;PMS5003;66627;29.424;-98.496;2023-06-10T09:29:24;12;12;
77515;PMS5003;66627;29.424;-98.496;2023-06-10T09:31:50;11;11;
77515;PMS5003;66627;29.424;-98.496;2023-06-10T09:34:16;12;11;
77515;PMS5003;66627;29.424;-98.496;2023-06-10T09:36:41;12;12;
77515;PMS5003;66627;29.424;-98.496;2023-06-10T09:41:32;8;8;
77515;PMS5003;66627;29.424;-98.496;2023-06-10T09:43:57;14;10;
77515;PMS5003;66627;29.424;-98.496;2023-06-10T09:46:22;11;11;
77515;PMS5003;66627;29.424;-98.496;2023-06-10T09:48:48;14;13;
77515;PMS5003;66627;29.424;-98.496;2023-06-10T09:51:13;14;13;
77515;PMS5003;66627;29.424;-98.496;2023-06-10T09:53:38;8;8;
77515;PMS5003;66627;29.424;-98.496;2023-06-10T09:56:03;12;12;
77515;PMS5003;66627;29.424;-98.496;2023-06-10T09:58:34;10;10;
77515;PMS5003;66627;29.424;-98.496;2023-06-10T10:00:53;11;11;
77515;PMS5003;66627;29.424;-98.496;2023-06-10T10:03:22;9;9;
77515;PMS5003;66627;29.424;-98.496;2023-06-10T10:05:43;10;10;
77515;PMS5003;66627;29.424;-98.496;2023-06-10T10:08:08;11;11;
77515;PMS5003;66627;29.424;-98.496;2023-06-10T10:10:34;13;13;
77515;PMS5003;66627;29.424;-98.496;2023-06-10T10:13:00;10;10;
77515;PMS5003;66627;29.424;-98.496;2023-06-10T10:15:28;14;12;
77515;PMS5003;66627;29.424;-98.496;2023-06-10T10:17:52;13;12;
77515;PMS5003;66627;29.424;-98.496;2023-06-10T10:20:16;11;11;
77515;PMS5003;66627;29.424;-98.496;2023-06-10T10:22:42;11;11;
77515;PMS5003;66627;29.424;-98.496;2023-06-10T10:25:10;13;11;
77515;PMS5003;66627;29.424;-98.496;2023-06-10T10:27:34;15;15;
77515;PMS5003;66627;29.424;-98.496;2023-06-10T10:29:58;10;10;
77515;PMS5003;66627;29.424;-98.496;2023-06-10T10:32:24;11;10;
77515;PMS5003;66627;29.424;-98.496;2023-06-10T10:34:49;17;16;
77515;PMS5003;66627;29.424;-98.496;2023-06-10T10:37:13;16;15;
77515;PMS5003;66627;29.424;-98.496;2023-06-10T10:39:39;13;13;
77515;PMS5003;66627;29.424;-98.496;2023-06-10T10:42:04;13;13;
77515;PMS5003;66627;29.424;-98.496;2023-06-10T10:44:29;19;15;
77515;PMS5003;66627;29.424;-98.496;2023-06-10T10:46:54;11;11;
77515;PMS5003;66627;29.424;-98.496;2023-06-10T10:49:20;15;15;
77515;PMS5003;66627;29.424;-98.496;2023-06-10T10:54:11;12;12;
77515;PMS5003;66627;29.424;-98.496;2023-06-10T10:56:36;15;13;
77515;PMS5003;66627;29.424;-98.496;2023-06-10T10:59:03;10;10;
77515;PMS5003;66627;29.424;-98.496;2023-06-10T11:01:28;11;11;
77515;PMS5003;66627;29.424;-98.496;2023-06-10T11:03:52;12;12;
77515;PMS5003;66627;29.424;-98.496;2023-06-10T11:06:18;9;9;
77515;PMS5003;66627;29.424;-98.496;2023-06-10T11:08:46;12;12;
77515;PMS5003;66627;29.424;-98.496;2023-06-10T11:13:34;14;14;
77515;PMS5003;66627;29.424;-98.496;2023-06-10T11:15:59;12;10;
77515;PMS5003;66627;29.424;-98.496;2023-06-10T11:18:25;15;12;
77515;PMS5003;66627;29.424;-98.496;2023-06-10T11:20:52;13;13;
77515;PMS5003;66627;29.424;-98.496;2023-06-10T11:25:41;16;15;
77515;PMS5003;66627;29.424;-98.496;2023-06-10T11:30:34;12;12;
77515;PMS5003;66627;29.424;-98.496;2023-06-10T11:32:57;11;11;
77515;PMS5003;66627;29.424;-98.496;2023-06-10T11:35:23;13;13;
77515;PMS5003;66627;29.424;-98.496;2023-06-10T11:37:48;12;11;
77515;PMS5003;66627;29.424;-98.496;2023-06-10T11:40:13;15;14;
77515;PMS5003;66627;29.424;-98.496;2023-06-10T11:42:40;11;11;
77515;PMS5003;66627;29.424;-98.496;2023-06-10T11:45:05;14;14;
77515;PMS5003;66627;29.424;-98.496;2023-06-10T11:47:29;12;12;
77515;PMS5003;66627;29.424;-98.496;2023-06-10T11:49:56;17;15;
77515;PMS5003;66627;29.424;-98.496;2023-06-10T11:52:22;12;11;
77515;PMS5003;66627;29.424;-98.496;2023-06-10T11:57:10;13;13;
77515;PMS5003;66627;29.424;-98.496;2023-06-10T11:59:36;15;13;
77515;PMS5003;66627;29.424;-98.496;2023-06-10T12:02:01;14;14;
77515;PMS5003;66627;29.424;-98.496;2023-06-10T12:04:26;13;13;
77515;PMS5003;66627;29.424;-98.496;2023-06-10T12:06:52;15;14;
77515;PMS5003;66627;29.424;-98.496;2023-06-10T12:09:18;12;12;
77515;PMS5003;66627;29.424;-98.496;2023-06-10T12:11:43;19;19;
77515;PMS5003;66627;29.424;-98.496;2023-06-10T12:14:08;21;21;
77515;PMS5003;66627;29.424;-98.496;2023-06-10T12:16:33;20;20;
77515;PMS5003;66627;29.424;-98.496;2023-06-10T12:19:02;16;16;
77515;PMS5003;66627;29.424;-98.496;2023-06-10T12:21:24;16;15;
77515;PMS5003;66627;29.424;-98.496;2023-06-10T12:26:14;15;15;
77515;PMS5003;66627;29.424;-98.496;2023-06-10T12:28:40;12;12;
77515;PMS5003;66627;29.424;-98.496;2023-06-10T12:31:07;22;17;
77515;PMS5003;66627;29.424;-98.496;2023-06-10T12:33:31;14;14;
77515;PMS5003;66627;29.424;-98.496;2023-06-10T12:35:56;17;16;
77515;PMS5003;66627;29.424;-98.496;2023-06-10T12:38:22;18;16;
77515;PMS5003;66627;29.424;-98.496;2023-06-10T12:40:47;20;17;
77515;PMS5003;66627;29.424;-98.496;2023-06-10T12:43:12;20;15;
77515;PMS5003;66627;29.424;-98.496;2023-06-10T12:45:38;16;13;
77515;PMS5003;66627;29.424;-98.496;2023-06-10T12:48:05;15;15;
77515;PMS5003;66627;29.424;-98.496;2023-06-10T12:50:29;19;18;
77515;PMS5003;66627;29.424;-98.496;2023-06-10T12:52:54;19;16;
77515;PMS5003;66627;29.424;-98.496;2023-06-10T12:55:19;13;13;
77515;PMS5003;66627;29.424;-98.496;2023-06-10T12:57:49;15;12;
77515;PMS5003;66627;29.424;-98.496;2023-06-10T13:00:10;19;17;
77515;PMS5003;66627;29.424;-98.496;2023-06-10T13:02:35;20;15;
77515;PMS5003;66627;29.424;-98.496;2023-06-10T13:05:00;17;15;
77515;PMS5003;66627;29.424;-98.496;2023-06-10T13:07:26;17;17;
77515;PMS5003;66627;29.424;-98.496;2023-06-10T13:09:52;15;15;
77515;PMS5003;66627;29.424;-98.496;2023-06-10T13:12:17;17;17;
77515;PMS5003;66627;29.424;-98.496;2023-06-10T13:14:42;16;14;
77515;PMS5003;66627;29.424;-98.496;2023-06-10T13:17:08;15;15;
77515;PMS5003;66627;29.424;-98.496;2023-06-10T13:19:33;16;14;
77515;PMS5003;66627;29.424;-98.496;2023-06-10T13:21:59;17;17;
77515;PMS5003;66627;29.424;-98.496;2023-06-10T13:24:25;15;15;
77515;PMS5003;66627;29.424;-98.496;2023-06-10T13:26:51;18;17;
77515;PMS5003;66627;29.424;-98.496;2023-06-10T13:29:16;15;14;
77515;PMS5003;66627;29.424;-98.496;2023-06-10T13:31:42;20;17;
77515;PMS5003;66627;29.424;-98.496;2023-06-10T13:34:07;22;22;
77515;PMS5003;66627;29.424;-98.496;2023-06-10T13:36:32;22;20;
77515;PMS5003;66627;29.424;-98.496;2023-06-10T13:38:58;21;19;
77515;PMS5003;66627;29.424;-98.496;2023-06-10T13:41:23;18;16;
77515;PMS5003;66627;29.424;-98.496;2023-06-10T13:43:48;21;20;
77515;PMS5003;66627;29.424;-98.496;2023-06-10T13:46:15;17;17;
77515;PMS5003;66627;29.424;-98.496;2023-06-10T13:48:40;16;16;
77515;PMS5003;66627;29.424;-98.496;2023-06-10T13:51:05;20;20;
77515;PMS5003;66627;29.424;-98.496;2023-06-10T13:53:31;18;17;
77515;PMS5003;66627;29.424;-98.496;2023-06-10T13:55:56;17;17;
77515;PMS5003;66627;29.424;-98.496;2023-06-10T13:58:22;24;24;
77515;PMS5003;66627;29.424;-98.496;2023-06-10T14:00:48;22;18;
77515;PMS5003;66627;29.424;-98.496;2023-06-10T14:03:13;19;19;
77515;PMS5003;66627;29.424;-98.496;2023-06-10T14:05:39;21;20;
77515;PMS5003;66627;29.424;-98.496;2023-06-10T14:08:04;16;16;
77515;PMS5003;66627;29.424;-98.496;2023-06-10T14:10:30;21;21;
77515;PMS5003;66627;29.424;-98.496;2023-06-10T14:12:55;21;19;
77515;PMS5003;66627;29.424;-98.496;2023-06-10T14:15:20;25;23;
77515;PMS5003;66627;29.424;-98.496;2023-06-10T14:17:45;21;18;
77515;PMS5003;66627;29.424;-98.496;2023-06-10T14:20:11;21;20;
77515;PMS5003;66627;29.424;-98.496;2023-06-10T14:22:36;20;15;
77515;PMS5003;66627;29.424;-98.496;2023-06-10T14:25:02;25;21;
77515;PMS5003;66627;29.424;-98.496;2023-06-10T14:27:27;23;21;
77515;PMS5003;66627;29.424;-98.496;2023-06-10T14:29:53;18;17;
77515;PMS5003;66627;29.424;-98.496;2023-06-10T14:32:18;19;17;
77515;PMS5003;66627;29.424;-98.496;2023-06-10T14:34:44;20;20;
77515;PMS5003;66627;29.424;-98.496;2023-06-10T14:37:10;19;16;
77515;PMS5003;66627;29.424;-98.496;2023-06-10T14:39:35;21;17;
77515;PMS5003;66627;29.424;-98.496;2023-06-10T14:42:01;20;20;
77515;PMS5003;66627;29.424;-98.496;2023-06-10T14:44:26;17;17;
77515;PMS5003;66627;29.424;-98.496;2023-06-10T14:46:52;19;15;
77515;PMS5003;66627;29.424;-98.496;2023-06-10T14:49:17;20;17;
77515;PMS5003;66627;29.424;-98.496;2023-06-10T14:51:43;19;19;
77515;PMS5003;66627;29.424;-98.496;2023-06-10T14:54:08;21;21;
77515;PMS5003;66627;29.424;-98.496;2023-06-10T14:56:34;15;15;
77515;PMS5003;66627;29.424;-98.496;2023-06-10T14:58:59;23;20;
77515;PMS5003;66627;29.424;-98.496;2023-06-10T15:01:24;21;19;
77515;PMS5003;66627;29.424;-98.496;2023-06-10T15:03:49;17;15;
77515;PMS5003;66627;29.424;-98.496;2023-06-10T15:06:15;15;13;
77515;PMS5003;66627;29.424;-98.496;2023-06-10T15:08:40;19;17;
77515;PMS5003;66627;29.424;-98.496;2023-06-10T15:11:06;22;18;
77515;PMS5003;66627;29.424;-98.496;2023-06-10T15:13:31;16;16;
77515;PMS5003;66627;29.424;-98.496;2023-06-10T15:15:57;20;19;
77515;PMS5003;66627;29.424;-98.496;2023-06-10T15:18:23;23;21;
77515;PMS5003;66627;29.424;-98.496;2023-06-10T15:20:48;16;16;
77515;PMS5003;66627;29.424;-98.496;2023-06-10T15:23:13;18;18;
77515;PMS5003;66627;29.424;-98.496;2023-06-10T15:25:39;17;16;
77515;PMS5003;66627;29.424;-98.496;2023-06-10T15:28:04;19;19;
77515;PMS5003;66627;29.424;-98.496;2023-06-10T15:30:29;15;14;
77515;PMS5003;66627;29.424;-98.496;2023-06-10T15:32:55;19;19;
77515;PMS5003;66627;29.424;-98.496;2023-06-10T15:35:21;14;13;
77515;PMS5003;66627;29.424;-98.496;2023-06-10T15:37:46;19;15;
77515;PMS5003;66627;29.424;-98.496;2023-06-10T15:40:11;19;18;
77515;PMS5003;66627;29.424;-98.496;2023-06-10T15:42:36;16;15;
77515;PMS5003;66627;29.424;-98.496;2023-06-10T15:45:02;25;21;
77515;PMS5003;66627;29.424;-98.496;2023-06-10T15:47:28;19;17;
77515;PMS5003;66627;29.424;-98.496;2023-06-10T15:49:53;17;16;
77515;PMS5003;66627;29.424;-98.496;2023-06-10T15:52:19;16;16;
77515;PMS5003;66627;29.424;-98.496;2023-06-10T15:54:44;15;15;